createdAt,value
2022-08-26T00:02:12.816Z,6.50
2022-08-26T00:05:16.036Z,6.93
2022-08-26T00:08:19.765Z,6.57
2022-08-26T00:11:26.262Z,7.07
2022-08-26T00:14:30.917Z,7.10
2022-08-26T00:17:34.636Z,7.67
2022-08-26T00:20:39.358Z,6.40
2022-08-26T00:23:45.527Z,6.00
2022-08-26T00:26:48.714Z,6.15
2022-08-26T00:29:52.252Z,4.90
2022-08-26T00:32:56.582Z,5.57
2022-08-26T00:36:01.353Z,5.90
2022-08-26T00:39:07.015Z,6.43
2022-08-26T00:42:10.055Z,6.30
2022-08-26T00:45:13.811Z,5.90
2022-08-26T00:48:18.550Z,6.70
2022-08-26T00:51:30.056Z,6.37
2022-08-26T00:54:34.887Z,6.18
2022-08-26T00:57:38.042Z,5.72
2022-08-26T01:00:41.108Z,6.05
2022-08-26T01:03:48.264Z,6.43
2022-08-26T01:06:52.508Z,7.00
2022-08-26T01:09:55.928Z,7.70
2022-08-26T01:13:00.775Z,7.47
2022-08-26T01:16:04.544Z,7.78
2022-08-26T01:19:34.190Z,6.97
2022-08-26T01:23:03.640Z,6.87
2022-08-26T01:26:19.833Z,7.40
2022-08-26T01:29:23.128Z,6.65
2022-08-26T01:32:26.244Z,7.03
2022-08-26T01:35:29.526Z,6.90
2022-08-26T01:38:33.003Z,6.80
2022-08-26T01:41:36.531Z,6.88
2022-08-26T01:45:07.424Z,6.57
2022-08-26T01:48:12.693Z,6.35
2022-08-26T01:51:15.671Z,6.50
2022-08-26T01:54:20.475Z,6.90
2022-08-26T01:57:23.560Z,6.82
2022-08-26T02:00:26.683Z,6.47
2022-08-26T02:03:30.345Z,6.57
2022-08-26T02:06:34.311Z,6.97
2022-08-26T02:09:41.335Z,6.53
2022-08-26T02:12:44.563Z,6.35
2022-08-26T02:15:47.550Z,5.82
2022-08-26T02:18:50.810Z,6.93
2022-08-26T02:21:56.447Z,5.87
2022-08-26T02:25:02.381Z,6.60
2022-08-26T02:28:05.450Z,6.07
2022-08-26T02:31:08.554Z,5.63
2022-08-26T02:34:14.581Z,5.70
2022-08-26T02:37:18.224Z,5.13
2022-08-26T02:40:26.176Z,5.90
2022-08-26T02:43:31.661Z,5.88
2022-08-26T02:46:36.252Z,6.00
2022-08-26T02:49:41.439Z,6.53
2022-08-26T02:52:48.441Z,6.83
2022-08-26T02:55:51.504Z,6.00
2022-08-26T02:58:54.476Z,6.40
2022-08-26T03:01:57.626Z,6.63
2022-08-26T03:05:01.885Z,6.78
2022-08-26T03:08:05.500Z,7.57
2022-08-26T03:11:08.630Z,6.37
2022-08-26T03:14:14.230Z,7.20
2022-08-26T03:17:17.249Z,6.55
2022-08-26T03:20:20.333Z,6.20
2022-08-26T03:23:23.474Z,5.90
2022-08-26T03:26:26.925Z,5.60
2022-08-26T03:29:50.388Z,6.47
2022-08-26T03:32:53.523Z,6.18
2022-08-26T03:35:56.756Z,6.07
2022-08-26T03:38:59.768Z,6.40
2022-08-26T03:42:02.777Z,6.30
2022-08-26T03:45:07.586Z,6.45
2022-08-26T03:48:11.405Z,5.50
2022-08-26T03:51:18.346Z,5.80
2022-08-26T03:54:21.998Z,5.20
2022-08-26T03:57:24.964Z,5.37
2022-08-26T04:00:27.979Z,5.50
2022-08-26T04:03:49.237Z,5.10
2022-08-26T04:06:56.894Z,5.05
2022-08-26T04:10:00.026Z,5.13
2022-08-26T04:13:03.053Z,4.83
2022-08-26T04:16:07.145Z,4.78
2022-08-26T04:19:11.079Z,6.00
2022-08-26T04:22:14.093Z,4.40
2022-08-26T04:25:18.579Z,5.80
2022-08-26T04:28:23.526Z,5.47
2022-08-26T04:31:26.578Z,5.43
2022-08-26T04:34:34.224Z,5.40
2022-08-26T04:37:37.515Z,6.05
2022-08-26T04:40:46.689Z,6.57
2022-08-26T04:43:50.386Z,5.90
2022-08-26T04:46:54.877Z,7.22
2022-08-26T04:49:58.645Z,6.90
2022-08-26T04:53:01.735Z,6.68
2022-08-26T04:56:05.030Z,6.10
2022-08-26T04:59:16.797Z,7.23
2022-08-26T05:02:21.227Z,6.72
2022-08-26T05:05:24.210Z,6.57
2022-08-26T05:08:27.575Z,7.28
2022-08-26T05:11:30.508Z,6.37
2022-08-26T05:14:33.746Z,6.07
2022-08-26T05:17:37.464Z,6.55
2022-08-26T05:20:42.216Z,6.50
2022-08-26T05:23:45.228Z,6.45
2022-08-26T05:26:48.307Z,6.97
2022-08-26T05:29:54.451Z,7.23
2022-08-26T05:32:57.717Z,7.03
2022-08-26T05:36:10.732Z,6.50
2022-08-26T05:39:14.250Z,7.28
2022-08-26T05:42:17.224Z,6.43
2022-08-26T05:45:20.668Z,7.10
2022-08-26T05:48:24.326Z,7.45
2022-08-26T05:51:27.575Z,6.53
2022-08-26T05:54:34.837Z,6.65
2022-08-26T05:57:42.147Z,7.10
2022-08-26T06:00:45.318Z,6.80
2022-08-26T06:03:51.720Z,7.70
2022-08-26T06:06:54.702Z,6.38
2022-08-26T06:10:15.374Z,7.50
2022-08-26T06:13:22.563Z,6.67
2022-08-26T06:16:25.643Z,7.07
2022-08-26T06:19:33.110Z,7.15
2022-08-26T06:22:56.075Z,6.43
2022-08-26T06:25:59.096Z,6.07
2022-08-26T06:29:02.298Z,6.20
2022-08-26T06:32:07.245Z,5.73
2022-08-26T06:35:12.430Z,6.20
2022-08-26T06:38:16.043Z,6.72
2022-08-26T06:41:21.125Z,5.82
2022-08-26T06:44:24.487Z,5.87
2022-08-26T06:47:27.841Z,5.17
2022-08-26T06:50:32.378Z,5.80
2022-08-26T06:53:36.860Z,6.18
2022-08-26T06:56:41.904Z,4.97
2022-08-26T06:59:44.891Z,4.73
2022-08-26T07:02:48.035Z,5.67
2022-08-26T07:05:51.656Z,5.40
2022-08-26T07:09:04.955Z,5.43
2022-08-26T07:12:09.361Z,5.80
2022-08-26T07:15:12.345Z,5.90
2022-08-26T07:18:15.436Z,5.90
2022-08-26T07:21:18.474Z,5.03
2022-08-26T07:24:21.758Z,5.20
2022-08-26T07:27:24.959Z,5.72
2022-08-26T07:30:28.136Z,6.23
2022-08-26T07:33:31.135Z,5.57
2022-08-26T07:36:34.635Z,5.97
2022-08-26T07:39:37.776Z,5.47
2022-08-26T07:42:43.452Z,6.22
2022-08-26T07:45:46.611Z,5.77
2022-08-26T07:48:51.399Z,4.97
2022-08-26T07:51:54.730Z,5.10
2022-08-26T07:54:58.817Z,5.13
2022-08-26T07:58:02.635Z,5.32
2022-08-26T08:01:06.097Z,5.43
2022-08-26T08:04:10.518Z,5.30
2022-08-26T08:07:16.992Z,5.18
2022-08-26T08:10:22.562Z,4.78
2022-08-26T08:13:28.473Z,5.75
2022-08-26T08:16:32.210Z,5.20
2022-08-26T08:19:36.847Z,4.87
2022-08-26T08:22:43.000Z,5.70
2022-08-26T08:25:46.220Z,5.15
2022-08-26T08:28:49.356Z,6.20
2022-08-26T08:31:56.476Z,5.37
2022-08-26T08:35:02.023Z,5.10
2022-08-26T08:38:13.995Z,5.50
2022-08-26T08:41:28.094Z,5.30
2022-08-26T08:44:31.345Z,5.05
2022-08-26T08:48:11.807Z,5.67
2022-08-26T08:51:23.634Z,5.60
2022-08-26T08:54:26.949Z,5.15
2022-08-26T08:57:43.754Z,5.70
2022-08-26T09:00:58.236Z,5.82
2022-08-26T09:04:07.178Z,5.40
2022-08-26T09:07:18.858Z,5.77
2022-08-26T09:10:38.603Z,6.10
2022-08-26T09:13:53.401Z,5.97
2022-08-26T09:17:12.291Z,5.05
2022-08-26T09:20:21.080Z,5.30
2022-08-26T09:23:25.329Z,5.10
2022-08-26T09:26:40.145Z,5.03
2022-08-26T09:29:45.486Z,5.03
2022-08-26T09:33:10.884Z,5.90
2022-08-26T09:36:24.704Z,5.53
2022-08-26T09:39:29.249Z,5.33
2022-08-26T09:42:32.525Z,5.50
2022-08-26T09:45:36.093Z,6.13
2022-08-26T09:48:41.082Z,5.75
2022-08-26T09:51:44.333Z,5.47
2022-08-26T09:55:03.761Z,5.70
2022-08-26T09:58:06.801Z,5.40
2022-08-26T10:01:35.375Z,5.40
2022-08-26T10:04:39.211Z,5.43
2022-08-26T10:07:50.021Z,5.23
2022-08-26T10:10:53.557Z,5.13
2022-08-26T10:14:03.042Z,5.10
2022-08-26T10:17:16.170Z,5.95
2022-08-26T10:20:24.110Z,5.88
2022-08-26T10:23:28.758Z,5.60
2022-08-26T10:27:11.536Z,5.40
2022-08-26T10:30:16.946Z,5.40
2022-08-26T10:33:20.157Z,5.35
2022-08-26T10:36:58.645Z,6.00
2022-08-26T10:40:13.945Z,5.37
2022-08-26T10:43:23.550Z,5.23
2022-08-26T10:46:36.053Z,5.30
2022-08-26T10:49:40.382Z,5.45
2022-08-26T10:52:48.251Z,5.72
2022-08-26T10:55:59.509Z,5.50
2022-08-26T10:59:31.118Z,5.27
2022-08-26T11:02:38.370Z,5.25
2022-08-26T11:05:41.360Z,5.55
2022-08-26T11:09:04.918Z,5.90
2022-08-26T11:12:10.255Z,5.80
2022-08-26T11:15:34.236Z,5.27
2022-08-26T11:18:41.217Z,5.63
2022-08-26T11:21:49.509Z,5.63
2022-08-26T11:24:56.958Z,5.80
2022-08-26T11:28:00.607Z,5.30
2022-08-26T11:31:05.467Z,5.85
2022-08-26T11:34:10.890Z,5.10
2022-08-26T11:37:14.732Z,5.83
2022-08-26T11:40:38.667Z,5.53
2022-08-26T11:43:42.746Z,5.50
2022-08-26T11:47:03.052Z,5.72
2022-08-26T11:50:13.731Z,5.82
2022-08-26T11:53:19.235Z,6.15
2022-08-26T11:56:31.725Z,5.82
2022-08-26T11:59:38.845Z,5.73
2022-08-26T12:02:43.033Z,5.63
2022-08-26T12:05:49.156Z,5.80
2022-08-26T12:08:52.538Z,5.83
2022-08-26T12:12:18.583Z,6.00
2022-08-26T12:15:22.974Z,5.80
2022-08-26T12:18:31.140Z,5.97
2022-08-26T12:21:35.117Z,5.70
2022-08-26T12:24:44.763Z,6.13
2022-08-26T12:27:53.117Z,6.35
2022-08-26T12:31:05.511Z,5.63
2022-08-26T12:34:18.130Z,6.15
2022-08-26T12:37:21.387Z,5.90
2022-08-26T12:40:35.813Z,5.87
2022-08-26T12:43:40.354Z,5.80
2022-08-26T12:46:46.690Z,6.00
2022-08-26T12:50:07.294Z,6.13
2022-08-26T12:53:10.333Z,6.22
2022-08-26T12:56:27.583Z,6.10
2022-08-26T12:59:30.574Z,5.40
2022-08-26T13:02:37.869Z,5.43
2022-08-26T13:05:40.996Z,5.65
2022-08-26T13:08:51.456Z,5.22
2022-08-26T13:11:54.421Z,4.97
2022-08-26T13:14:58.797Z,5.27
2022-08-26T13:18:03.042Z,5.13
2022-08-26T13:21:19.654Z,5.00
2022-08-26T13:24:29.075Z,5.03
2022-08-26T13:27:32.082Z,4.95
2022-08-26T13:30:35.061Z,4.40
2022-08-26T13:33:38.258Z,4.60
2022-08-26T13:36:44.480Z,5.03
2022-08-26T13:39:48.262Z,4.85
2022-08-26T13:42:51.371Z,5.00
2022-08-26T13:45:54.428Z,4.43
2022-08-26T13:48:57.923Z,4.80
2022-08-26T13:52:01.984Z,4.70
2022-08-26T13:55:06.691Z,4.57
2022-08-26T13:58:10.516Z,4.70
2022-08-26T14:01:13.910Z,4.83
2022-08-26T14:04:17.045Z,4.78
2022-08-26T14:07:30.040Z,5.00
2022-08-26T14:10:33.135Z,5.07
2022-08-26T14:13:36.215Z,4.80
2022-08-26T14:16:51.351Z,5.00
2022-08-26T14:20:02.380Z,4.60
2022-08-26T14:23:21.022Z,5.05
2022-08-26T14:26:28.384Z,5.00
2022-08-26T14:29:32.049Z,4.68
2022-08-26T14:32:35.119Z,4.87
2022-08-26T14:35:38.107Z,4.65
2022-08-26T14:38:41.924Z,4.82
2022-08-26T14:41:54.399Z,4.78
2022-08-26T14:44:58.887Z,4.85
2022-08-26T14:48:01.951Z,4.83
2022-08-26T14:51:05.486Z,5.07
2022-08-26T14:54:14.817Z,5.32
2022-08-26T14:57:18.610Z,4.75
2022-08-26T15:00:21.635Z,4.78
2022-08-26T15:03:24.626Z,4.97
2022-08-26T15:06:29.043Z,5.28
2022-08-26T15:09:34.122Z,5.38
2022-08-26T15:12:37.513Z,5.32
2022-08-26T15:15:40.476Z,5.15
2022-08-26T15:18:43.453Z,5.20
2022-08-26T15:21:47.349Z,5.10
2022-08-26T15:24:53.588Z,5.75
2022-08-26T15:27:56.926Z,5.32
2022-08-26T15:31:00.625Z,5.47
2022-08-26T15:34:08.985Z,5.50
2022-08-26T15:37:13.201Z,6.00
2022-08-26T15:40:16.388Z,6.03
2022-08-26T15:43:28.876Z,5.65
2022-08-26T15:46:32.571Z,5.80
2022-08-26T15:49:35.533Z,5.77
2022-08-26T15:52:42.114Z,5.28
2022-08-26T15:55:45.183Z,6.15
2022-08-26T15:58:49.104Z,4.70
2022-08-26T16:01:53.247Z,4.50
2022-08-26T16:04:56.334Z,4.73
2022-08-26T16:08:03.504Z,5.10
2022-08-26T16:11:06.537Z,5.07
2022-08-26T16:14:09.526Z,4.57
2022-08-26T16:17:12.613Z,4.78
2022-08-26T16:20:16.891Z,4.47
2022-08-26T16:23:20.349Z,4.63
2022-08-26T16:26:26.006Z,4.93
2022-08-26T16:29:29.058Z,5.00
2022-08-26T16:32:32.077Z,4.90
2022-08-26T16:35:35.164Z,5.30
2022-08-26T16:38:38.832Z,5.03
2022-08-26T16:41:42.138Z,4.97
2022-08-26T16:44:45.307Z,4.72
2022-08-26T16:47:48.538Z,4.78
2022-08-26T16:50:52.014Z,4.57
2022-08-26T16:53:56.252Z,4.57
2022-08-26T16:56:59.227Z,4.80
2022-08-26T17:00:05.454Z,4.90
2022-08-26T17:03:10.019Z,4.63
2022-08-26T17:06:13.171Z,4.50
2022-08-26T17:09:16.178Z,5.20
2022-08-26T17:12:19.150Z,5.22
2022-08-26T17:15:23.789Z,5.15
2022-08-26T17:18:28.502Z,4.85
2022-08-26T17:21:32.959Z,5.03
2022-08-26T17:24:36.097Z,5.18
2022-08-26T17:27:39.537Z,5.22
2022-08-26T17:30:42.783Z,5.15
2022-08-26T17:33:48.846Z,5.00
2022-08-26T17:36:53.353Z,4.93
2022-08-26T17:39:56.504Z,4.45
2022-08-26T17:42:59.525Z,7.25
2022-08-26T17:46:06.857Z,5.43
2022-08-26T17:49:10.548Z,5.28
2022-08-26T17:52:14.295Z,4.63
2022-08-26T17:55:17.656Z,4.82
2022-08-26T17:58:23.779Z,5.13
2022-08-26T18:01:27.422Z,5.18
2022-08-26T18:04:30.981Z,4.97
2022-08-26T18:07:37.721Z,4.80
2022-08-26T18:10:47.215Z,4.93
2022-08-26T18:13:50.202Z,4.80
2022-08-26T18:16:53.256Z,5.40
2022-08-26T18:19:56.281Z,5.35
2022-08-26T18:22:59.234Z,5.13
2022-08-26T18:26:02.190Z,5.20
2022-08-26T18:29:05.715Z,5.28
2022-08-26T18:32:08.684Z,4.43
2022-08-26T18:35:11.901Z,5.13
2022-08-26T18:38:15.425Z,5.10
2022-08-26T18:41:20.799Z,4.88
2022-08-26T18:44:23.919Z,5.63
2022-08-26T18:47:26.913Z,4.97
2022-08-26T18:50:29.962Z,5.30
2022-08-26T18:53:33.117Z,5.67
2022-08-26T18:56:37.799Z,5.35
2022-08-26T18:59:41.045Z,5.07
2022-08-26T19:02:51.687Z,5.22
2022-08-26T19:05:55.536Z,5.57
2022-08-26T19:08:59.039Z,5.60
2022-08-26T19:12:02.400Z,5.90
2022-08-26T19:15:05.922Z,6.53
2022-08-26T19:18:09.815Z,5.03
2022-08-26T19:21:13.011Z,5.45
2022-08-26T19:24:17.608Z,5.50
2022-08-26T19:27:20.624Z,5.45
2022-08-26T19:30:23.985Z,5.80
2022-08-26T19:33:31.017Z,5.43
2022-08-26T19:36:34.331Z,5.32
2022-08-26T19:39:37.783Z,5.40
2022-08-26T19:42:40.747Z,5.82
2022-08-26T19:45:43.827Z,6.03
2022-08-26T19:48:47.452Z,5.43
2022-08-26T19:51:51.467Z,5.72
2022-08-26T19:54:54.414Z,5.13
2022-08-26T19:57:57.753Z,5.05
2022-08-26T20:01:00.840Z,5.53
2022-08-26T20:04:04.192Z,5.65
2022-08-26T20:07:07.843Z,6.10
2022-08-26T20:10:13.573Z,6.13
2022-08-26T20:13:16.577Z,5.50
2022-08-26T20:16:19.578Z,5.97
2022-08-26T20:19:41.277Z,5.18
2022-08-26T20:22:44.525Z,5.57
2022-08-26T20:25:47.589Z,5.20
2022-08-26T20:28:51.088Z,5.35
2022-08-26T20:31:54.645Z,5.40
2022-08-26T20:34:58.143Z,5.70
2022-08-26T20:38:01.096Z,5.75
2022-08-26T20:41:04.177Z,6.00
2022-08-26T20:44:07.378Z,5.75
2022-08-26T20:47:10.397Z,5.50
2022-08-26T20:50:13.480Z,5.55
2022-08-26T20:53:16.456Z,5.97
2022-08-26T20:56:23.655Z,5.93
2022-08-26T20:59:26.697Z,5.57
2022-08-26T21:02:29.717Z,5.65
2022-08-26T21:05:32.677Z,6.00
2022-08-26T21:08:37.804Z,6.00
2022-08-26T21:11:43.340Z,6.10
2022-08-26T21:14:49.557Z,5.55
2022-08-26T21:17:52.823Z,6.20
2022-08-26T21:20:55.808Z,5.55
2022-08-26T21:23:58.973Z,5.45
2022-08-26T21:27:01.970Z,5.60
2022-08-26T21:30:05.195Z,5.57
2022-08-26T21:33:08.434Z,5.65
2022-08-26T21:36:11.954Z,5.55
2022-08-26T21:39:15.190Z,6.10
2022-08-26T21:42:18.154Z,5.77
2022-08-26T21:45:21.151Z,6.13
2022-08-26T21:48:24.742Z,6.47
2022-08-26T21:51:38.301Z,5.57
2022-08-26T21:54:41.294Z,5.97
2022-08-26T21:57:52.446Z,6.10
2022-08-26T22:00:55.452Z,5.85
2022-08-26T22:03:58.512Z,5.72
2022-08-26T22:07:01.604Z,5.68
2022-08-26T22:10:05.008Z,6.25
2022-08-26T22:13:09.205Z,5.50
2022-08-26T22:16:13.220Z,5.63
2022-08-26T22:19:17.478Z,5.60
2022-08-26T22:22:20.541Z,5.65
2022-08-26T22:25:23.476Z,5.22
2022-08-26T22:28:26.470Z,5.53
2022-08-26T22:31:37.381Z,5.65
2022-08-26T22:34:41.895Z,5.47
2022-08-26T22:37:44.939Z,5.43
2022-08-26T22:40:55.179Z,5.95
2022-08-26T22:43:58.170Z,5.90
2022-08-26T22:47:01.170Z,5.65
2022-08-26T22:50:04.466Z,5.40
2022-08-26T22:53:07.419Z,5.57
2022-08-26T22:56:10.544Z,5.63
2022-08-26T22:59:13.741Z,5.83
2022-08-26T23:02:16.719Z,5.90
2022-08-26T23:05:19.755Z,5.90
2022-08-26T23:08:22.912Z,5.68
2022-08-26T23:11:25.890Z,5.88
2022-08-26T23:14:28.862Z,5.73
2022-08-26T23:17:32.085Z,5.57
2022-08-26T23:20:35.522Z,5.45
2022-08-26T23:23:38.596Z,5.80
2022-08-26T23:26:48.713Z,6.10
2022-08-26T23:29:51.778Z,6.25
2022-08-26T23:32:54.764Z,6.10
2022-08-26T23:35:57.703Z,5.90
2022-08-26T23:39:00.885Z,5.70
2022-08-26T23:42:04.240Z,6.40
2022-08-26T23:45:08.584Z,6.20
2022-08-26T23:48:11.726Z,5.83
2022-08-26T23:51:35.055Z,6.30
2022-08-26T23:54:38.627Z,5.65
2022-08-26T23:57:41.647Z,6.45
